createdAt,value
2019-03-23T00:01:32.185Z,5.40
2019-03-23T00:06:38.515Z,2.30
2019-03-23T00:11:44.585Z,1.67
2019-03-23T00:16:50.785Z,1.30
2019-03-23T00:21:57.114Z,1.40
2019-03-23T00:27:03.163Z,1.33
2019-03-23T00:32:09.475Z,2.20
2019-03-23T00:37:15.506Z,1.87
2019-03-23T00:42:22.034Z,2.23
2019-03-23T00:47:27.999Z,2.00
2019-03-23T00:52:34.250Z,0.33
2019-03-23T01:02:51.716Z,0.47
2019-03-23T01:07:57.771Z,0.70
2019-03-23T01:13:03.833Z,1.00
2019-03-23T01:18:10.096Z,1.03
2019-03-23T01:23:16.266Z,1.40
2019-03-23T01:28:22.353Z,1.00
2019-03-23T01:33:28.377Z,1.10
2019-03-23T01:38:34.427Z,1.50
2019-03-23T01:43:40.441Z,1.53
2019-03-23T01:48:46.560Z,1.47
2019-03-23T01:53:52.670Z,1.25
2019-03-23T01:58:58.650Z,1.60
2019-03-23T02:04:04.681Z,1.50
2019-03-23T02:09:10.626Z,1.70
2019-03-23T02:14:16.542Z,1.80
2019-03-23T02:19:22.604Z,1.83
2019-03-23T02:24:28.754Z,2.07
2019-03-23T02:29:34.955Z,1.47
2019-03-23T02:34:41.088Z,2.20
2019-03-23T02:39:47.188Z,2.58
2019-03-23T02:44:53.198Z,2.50
2019-03-23T02:49:59.201Z,2.10
2019-03-23T02:55:05.603Z,2.87
2019-03-23T03:00:12.802Z,2.00
2019-03-23T03:05:18.802Z,1.93
2019-03-23T03:10:39.996Z,1.77
2019-03-23T03:15:45.973Z,1.90
2019-03-23T03:20:52.020Z,2.27
2019-03-23T03:25:57.912Z,1.97
2019-03-23T03:31:04.228Z,2.00
2019-03-23T03:36:10.425Z,2.30
2019-03-23T03:41:16.535Z,3.03
2019-03-23T03:46:22.562Z,2.00
2019-03-23T03:51:28.605Z,1.93
2019-03-23T03:56:34.513Z,2.57
2019-03-23T04:01:40.595Z,2.17
2019-03-23T04:06:46.542Z,2.17
2019-03-23T04:11:52.693Z,1.90
2019-03-23T04:16:58.586Z,2.83
2019-03-23T04:22:04.811Z,2.13
2019-03-23T04:27:10.726Z,2.40
2019-03-23T04:32:16.813Z,1.87
2019-03-23T04:37:22.801Z,2.73
2019-03-23T04:42:28.836Z,2.80
2019-03-23T04:47:34.796Z,2.93
2019-03-23T04:52:40.951Z,2.17
2019-03-23T04:57:46.901Z,2.13
2019-03-23T05:02:53.020Z,3.58
2019-03-23T05:07:59.114Z,3.20
2019-03-23T05:13:05.122Z,3.00
2019-03-23T05:18:11.066Z,3.07
2019-03-23T05:23:17.208Z,2.98
2019-03-23T05:28:23.148Z,3.17
2019-03-23T05:33:29.191Z,3.43
2019-03-23T05:38:43.975Z,2.57
2019-03-23T05:43:43.106Z,3.20
2019-03-23T05:48:49.192Z,3.00
2019-03-23T05:53:55.320Z,3.10
2019-03-23T05:59:01.321Z,3.03
2019-03-23T06:04:07.505Z,2.80
2019-03-23T06:09:13.540Z,2.90
2019-03-23T06:14:19.581Z,3.10
2019-03-23T06:19:25.541Z,3.27
2019-03-23T06:24:31.587Z,3.83
2019-03-23T06:29:37.555Z,3.67
2019-03-23T06:34:43.622Z,4.33
2019-03-23T06:39:49.575Z,3.50
2019-03-23T06:44:55.655Z,3.43
2019-03-23T06:50:01.932Z,3.50
2019-03-23T06:55:08.674Z,3.40
2019-03-23T07:00:15.121Z,3.27
2019-03-23T07:05:21.181Z,3.43
2019-03-23T07:10:27.161Z,3.70
2019-03-23T07:15:33.126Z,2.90
2019-03-23T07:20:40.111Z,3.20
2019-03-23T07:25:46.327Z,4.00
2019-03-23T07:30:52.244Z,3.95
2019-03-23T07:35:58.326Z,3.95
2019-03-23T07:41:04.409Z,3.00
2019-03-23T07:46:10.575Z,3.20
2019-03-23T07:51:16.531Z,3.90
2019-03-23T07:56:23.666Z,3.27
2019-03-23T08:01:29.658Z,3.57
2019-03-23T08:06:35.826Z,3.30
2019-03-23T08:11:41.865Z,3.55
2019-03-23T08:16:48.065Z,3.15
2019-03-23T08:21:54.548Z,4.53
2019-03-23T08:27:00.837Z,5.27
2019-03-23T08:32:07.173Z,2.90
2019-03-23T08:37:13.221Z,4.53
2019-03-23T08:42:19.686Z,3.60
2019-03-23T08:47:25.910Z,3.10
2019-03-23T08:52:32.362Z,3.60
2019-03-23T08:57:41.503Z,3.83
2019-03-23T09:02:47.785Z,3.50
2019-03-23T09:07:54.207Z,3.27
2019-03-23T09:13:00.442Z,4.33
2019-03-23T09:18:06.790Z,2.87
2019-03-23T09:23:12.776Z,4.23
2019-03-23T09:28:18.912Z,2.97
2019-03-23T09:33:25.205Z,2.93
2019-03-23T09:38:31.381Z,4.43
2019-03-23T09:43:37.725Z,3.93
2019-03-23T09:48:43.831Z,3.40
2019-03-23T09:53:50.171Z,3.95
2019-03-23T09:58:56.242Z,3.10
2019-03-23T10:04:02.373Z,3.00
2019-03-23T10:09:09.345Z,3.17
2019-03-23T10:14:15.746Z,4.30
2019-03-23T10:19:23.278Z,4.43
2019-03-23T10:24:29.456Z,3.60
2019-03-23T10:29:35.871Z,3.77
2019-03-23T10:34:41.926Z,4.23
2019-03-23T10:39:47.871Z,3.90
2019-03-23T10:44:53.969Z,4.73
2019-03-23T10:50:00.002Z,4.92
2019-03-23T10:55:06.371Z,4.77
2019-03-23T11:00:15.985Z,5.37
2019-03-23T11:05:21.985Z,5.00
2019-03-23T11:10:28.011Z,5.07
2019-03-23T11:15:34.008Z,3.60
2019-03-23T11:20:40.998Z,4.97
2019-03-23T11:25:47.020Z,3.87
2019-03-23T11:30:54.048Z,4.20
2019-03-23T11:35:59.971Z,4.53
2019-03-23T11:41:06.386Z,4.20
2019-03-23T11:46:13.423Z,4.70
2019-03-23T11:51:19.438Z,4.53
2019-03-23T11:56:25.466Z,4.33
2019-03-23T12:01:31.687Z,5.17
2019-03-23T12:06:37.767Z,5.23
2019-03-23T12:11:44.016Z,4.47
2019-03-23T12:16:50.326Z,4.40
2019-03-23T12:21:56.882Z,4.75
2019-03-23T12:27:02.860Z,4.93
2019-03-23T12:32:08.917Z,5.80
2019-03-23T12:37:14.946Z,4.37
2019-03-23T12:42:21.221Z,4.67
2019-03-23T12:47:27.260Z,5.50
2019-03-23T12:52:33.581Z,4.97
2019-03-23T12:57:40.377Z,4.73
2019-03-23T13:02:46.380Z,5.23
2019-03-23T13:07:52.486Z,4.90
2019-03-23T13:12:58.746Z,4.20
2019-03-23T13:18:04.808Z,5.10
2019-03-23T13:23:12.614Z,4.80
2019-03-23T13:28:18.736Z,4.40
2019-03-23T13:33:24.825Z,4.60
2019-03-23T13:38:33.554Z,4.60
2019-03-23T13:43:39.898Z,5.37
2019-03-23T13:48:45.936Z,5.53
2019-03-23T13:53:52.278Z,5.67
2019-03-23T13:58:58.721Z,4.42
2019-03-23T14:04:04.846Z,4.73
2019-03-23T14:09:10.836Z,5.67
2019-03-23T14:14:16.840Z,5.10
2019-03-23T14:19:22.893Z,4.97
2019-03-23T14:24:29.025Z,5.30
2019-03-23T14:29:35.110Z,4.30
2019-03-23T14:34:41.389Z,5.00
2019-03-23T14:39:47.730Z,4.33
2019-03-23T14:44:53.801Z,4.40
2019-03-23T14:49:59.951Z,4.50
2019-03-23T14:55:06.497Z,4.80
2019-03-23T15:00:12.797Z,4.90
2019-03-23T15:05:19.065Z,4.83
2019-03-23T15:10:25.563Z,4.67
2019-03-23T15:15:31.628Z,4.77
2019-03-23T15:20:37.866Z,4.80
2019-03-23T15:25:43.826Z,4.50
2019-03-23T15:30:50.843Z,5.12
2019-03-23T15:35:56.952Z,4.53
2019-03-23T15:41:02.837Z,4.90
2019-03-23T15:46:09.057Z,5.20
2019-03-23T15:51:14.966Z,4.33
2019-03-23T15:56:23.985Z,4.53
2019-03-23T16:01:31.093Z,5.63
2019-03-23T16:06:38.115Z,4.77
2019-03-23T16:11:44.282Z,4.60
2019-03-23T16:16:50.399Z,4.90
2019-03-23T16:21:57.917Z,4.43
2019-03-23T16:27:03.971Z,4.07
2019-03-23T16:32:10.229Z,4.30
2019-03-23T16:37:16.303Z,3.70
2019-03-23T16:42:22.752Z,3.00
2019-03-23T16:47:31.281Z,3.17
2019-03-23T16:52:38.665Z,3.60
2019-03-23T16:57:44.822Z,3.10
2019-03-23T17:02:53.167Z,4.10
2019-03-23T17:07:59.370Z,3.37
2019-03-23T17:13:05.551Z,3.73
2019-03-23T17:18:11.407Z,3.77
2019-03-23T17:23:17.497Z,3.73
2019-03-23T17:28:23.422Z,3.40
2019-03-23T17:33:29.604Z,4.00
2019-03-23T17:38:35.483Z,4.07
2019-03-23T17:43:41.979Z,3.87
2019-03-23T17:48:48.156Z,5.08
2019-03-23T17:53:58.519Z,4.07
2019-03-23T17:59:02.157Z,3.63
2019-03-23T18:04:08.218Z,3.57
2019-03-23T18:09:14.616Z,4.20
2019-03-23T18:14:21.334Z,3.70
2019-03-23T18:19:27.776Z,4.50
2019-03-23T18:24:33.845Z,4.57
2019-03-23T18:29:40.768Z,4.63
2019-03-23T18:34:46.854Z,6.30
2019-03-23T18:39:53.087Z,6.62
2019-03-23T18:44:59.468Z,5.47
2019-03-23T18:50:06.456Z,6.00
2019-03-23T18:55:13.956Z,5.47
2019-03-23T19:00:30.608Z,5.33
2019-03-23T19:05:39.885Z,6.00
2019-03-23T19:10:46.125Z,5.80
2019-03-23T19:15:52.297Z,5.43
2019-03-23T19:20:58.575Z,5.80
2019-03-23T19:26:06.856Z,5.70
2019-03-23T19:31:13.096Z,6.20
2019-03-23T19:36:19.356Z,6.53
2019-03-23T19:41:25.546Z,6.20
2019-03-23T19:46:31.795Z,5.60
2019-03-23T19:51:37.839Z,7.10
2019-03-23T19:56:43.876Z,7.40
2019-03-23T20:01:49.976Z,6.33
2019-03-23T20:06:56.316Z,5.47
2019-03-23T20:12:02.539Z,5.80
2019-03-23T20:17:08.616Z,6.67
2019-03-23T20:22:14.899Z,6.07
2019-03-23T20:27:21.296Z,5.67
2019-03-23T20:32:27.316Z,5.80
2019-03-23T20:37:33.514Z,5.43
2019-03-23T20:42:39.656Z,5.77
2019-03-23T20:47:45.825Z,5.27
2019-03-23T20:52:52.275Z,5.50
2019-03-23T20:57:58.756Z,4.83
2019-03-23T21:03:04.776Z,5.23
2019-03-23T21:08:10.985Z,4.83
2019-03-23T21:13:17.110Z,5.23
2019-03-23T21:18:23.476Z,5.10
2019-03-23T21:23:29.655Z,5.57
2019-03-23T21:28:35.757Z,5.27
2019-03-23T21:33:41.816Z,6.17
2019-03-23T21:38:47.859Z,5.97
2019-03-23T21:43:56.976Z,6.80
2019-03-23T21:49:03.136Z,7.50
2019-03-23T21:54:09.407Z,7.33
2019-03-23T21:59:15.915Z,7.20
2019-03-23T22:04:22.176Z,7.57
2019-03-23T22:09:31.394Z,7.57
2019-03-23T22:14:41.701Z,8.13
2019-03-23T22:19:45.556Z,9.43
2019-03-23T22:24:51.956Z,8.38
2019-03-23T22:29:58.426Z,8.18
2019-03-23T22:35:05.161Z,8.43
2019-03-23T22:40:11.679Z,7.57
2019-03-23T22:45:17.918Z,7.83
2019-03-23T22:50:23.875Z,8.73
2019-03-23T22:55:30.017Z,9.03
2019-03-23T23:00:44.117Z,8.87
2019-03-23T23:05:50.276Z,8.20
2019-03-23T23:10:56.353Z,8.87
2019-03-23T23:16:02.957Z,10.07
2019-03-23T23:21:09.215Z,8.80
2019-03-23T23:26:15.337Z,8.50
2019-03-23T23:31:21.490Z,8.33
2019-03-23T23:36:27.945Z,9.00
2019-03-23T23:41:34.293Z,6.80
2019-03-23T23:46:40.938Z,1.50
2019-03-23T23:51:50.400Z,0.83
2019-03-23T23:56:54.997Z,1.27
